PDT,Max TemperatureF,Mean TemperatureF,Min TemperatureF,Max Dew PointF,MeanDew PointF,Min DewpointF,Max Humidity, Mean Humidity, Min Humidity, Max Sea Level PressureIn, Mean Sea Level PressureIn, Min Sea Level PressureIn, Max VisibilityMiles, Mean VisibilityMiles, Min VisibilityMiles, Max Wind SpeedMPH, Mean Wind SpeedMPH, Max Gust SpeedMPH,PrecipitationIn, CloudCover, Events, WindDirDegrees
2013-3-1,78,60,42,52,47,42,96,66,36,30.44,30.31,30.22,10,10,10,9,3,31,0.00,0,,210
2013-3-2,72,61,49,49,47,42,93,66,38,30.24,30.17,30.10,10,10,8,29,3,,0.00,3,,218
2013-3-3,58,54,49,50,48,45,93,85,77,30.13,30.11,30.08,10,9,4,10,4,24,0.00,7,,160
2013-3-4,57,51,44,47,44,42,93,82,71,30.17,30.11,30.09,10,10,5,12,3,22,0.00,6,,127
2013-3-5,53,48,43,43,41,38,93,78,63,30.11,30.04,29.96,10,10,8,16,5,41,0.04,4,Rain,204
2013-3-6,56,49,41,48,43,39,89,75,61,30.10,30.04,29.95,10,10,9,14,7,17,0.13,5,Rain,213
2013-3-7,58,50,41,46,41,34,96,68,40,30.02,29.93,29.87,10,10,9,15,3,18,0.15,5,Rain,261
2013-3-8,60,52,43,46,42,37,93,70,47,30.12,29.93,29.84,10,10,10,45,5,173,0.04,5,Rain,254
2013-3-9,62,51,39,47,41,37,92,70,48,30.32,30.24,30.13,10,10,10,12,4,15,0.00,2,,222
2013-3-10,61,49,37,48,44,37,100,78,55,30.36,30.30,30.27,10,6,0,10,3,24,0.00,2,Fog,212
2013-3-11,70,54,38,48,42,35,100,67,34,30.28,30.21,30.13,10,8,0,12,2,15,0.00,1,Fog,217
2013-3-12,69,56,43,51,46,41,100,75,49,30.16,30.13,30.07,10,4,0,10,2,26,0.00,3,Fog,158
2013-3-13,46,46,46,45,44,43,93,93,93,30.16,30.13,30.07,10,3,0,8,3,,0.00,2,Fog,156
2013-3-14,60,55,50,51,49,48,93,83,72,30.17,30.13,30.11,10,4,0,8,3,,0.00,1,Fog,190
2013-3-15,71,57,43,51,46,42,93,74,55,30.13,30.10,30.06,10,10,9,23,2,63,0.00,0,,275
2013-3-16,66,56,45,51,47,44,100,78,56,30.12,30.08,30.05,10,5,0,13,3,18,0.00,4,Fog,106
2013-3-17,63,52,41,46,44,41,100,74,48,30.15,30.11,30.06,10,10,7,12,4,21,0.00,0,,359
2013-3-18,62,50,38,47,44,38,93,72,51,30.14,30.10,30.05,10,9,8,14,3,18,0.00,1,,214
2013-3-19,71,58,45,49,44,37,93,62,31,30.17,30.11,30.07,10,9,7,14,3,17,0.04,2,Rain,250
2013-3-20,64,57,50,54,50,31,100,65,30,30.14,30.12,30.09,10,9,4,10,3,14,0.01,8,Rain,248
2013-3-21,63,54,44,52,47,40,96,71,46,30.13,30.08,30.00,10,8,1,13,4,15,0.00,4,Rain,155
2013-3-22,72,55,38,42,33,11,93,51,9,30.09,30.05,30.01,10,9,7,14,5,23,0.00,0,,301
2013-3-23,66,52,38,46,37,31,79,55,30,30.13,30.09,30.05,10,9,8,10,4,13,0.00,0,,279
2013-3-24,64,51,38,47,42,35,86,65,44,30.11,30.06,30.00,10,8,5,12,4,16,0.00,0,,153
2013-3-25,60,51,41,48,43,39,100,78,55,30.04,30.02,29.97,10,5,0,12,4,35,0.00,3,Fog,120
2013-3-26,64,54,44,48,44,41,89,75,60,30.02,30.00,29.96,10,9,7,13,4,22,0.00,4,,197
2013-3-27,65,55,45,54,48,42,100,80,60,30.05,30.01,29.98,10,6,0,14,4,18,T,6,Fog,243
2013-3-28,65,56,47,54,52,48,100,84,67,30.10,30.07,30.03,10,7,2,17,5,28,T,6,Rain,232
2013-3-29,73,59,44,54,48,43,100,75,49,30.10,30.08,30.05,10,6,0,18,4,22,0.00,3,Fog,224
2013-3-30,66,58,50,54,50,48,100,78,56,30.12,30.07,30.03,10,7,0,15,6,20,0.05,6,Fog-Rain,254
2013-3-31,66,58,50,54,51,46,96,72,48,30.09,30.06,30.02,10,9,6,18,7,44,0.13,5,Rain,239